sensor_id;sensor_type;location;lat;lon;timestamp;P1;durP1;ratioP1;P2;durP2;ratioP2
7359;SDS011;3720;48.274;7.796;2022-09-03T00:02:03;4.10;;;3.10;;
7359;SDS011;3720;48.274;7.796;2022-09-03T00:04:46;3.95;;;2.50;;
7359;SDS011;3720;48.274;7.796;2022-09-03T00:07:28;4.68;;;2.75;;
7359;SDS011;3720;48.274;7.796;2022-09-03T00:10:07;4.13;;;3.00;;
7359;SDS011;3720;48.274;7.796;2022-09-03T00:12:42;4.57;;;2.80;;
7359;SDS011;3720;48.274;7.796;2022-09-03T00:15:17;4.32;;;2.80;;
7359;SDS011;3720;48.274;7.796;2022-09-03T00:17:54;4.60;;;2.72;;
7359;SDS011;3720;48.274;7.796;2022-09-03T00:20:32;4.15;;;2.60;;
7359;SDS011;3720;48.274;7.796;2022-09-03T00:23:11;5.47;;;2.55;;
7359;SDS011;3720;48.274;7.796;2022-09-03T00:25:49;3.55;;;2.33;;
7359;SDS011;3720;48.274;7.796;2022-09-03T00:28:27;3.85;;;2.25;;
7359;SDS011;3720;48.274;7.796;2022-09-03T00:31:09;2.60;;;2.10;;
7359;SDS011;3720;48.274;7.796;2022-09-03T00:33:48;3.22;;;2.15;;
7359;SDS011;3720;48.274;7.796;2022-09-03T00:36:28;4.30;;;2.20;;
7359;SDS011;3720;48.274;7.796;2022-09-03T00:39:04;3.05;;;2.10;;
7359;SDS011;3720;48.274;7.796;2022-09-03T00:41:36;3.75;;;2.10;;
7359;SDS011;3720;48.274;7.796;2022-09-03T00:44:22;4.47;;;2.00;;
7359;SDS011;3720;48.274;7.796;2022-09-03T00:47:06;4.30;;;2.08;;
7359;SDS011;3720;48.274;7.796;2022-09-03T00:49:48;3.67;;;2.20;;
7359;SDS011;3720;48.274;7.796;2022-09-03T00:52:36;4.40;;;2.33;;
7359;SDS011;3720;48.274;7.796;2022-09-03T00:55:21;4.00;;;2.38;;
7359;SDS011;3720;48.274;7.796;2022-09-03T00:58:04;6.53;;;2.50;;
7359;SDS011;3720;48.274;7.796;2022-09-03T01:00:46;3.20;;;2.30;;
7359;SDS011;3720;48.274;7.796;2022-09-03T01:03:23;2.40;;;2.20;;
7359;SDS011;3720;48.274;7.796;2022-09-03T01:06:08;2.72;;;2.28;;
7359;SDS011;3720;48.274;7.796;2022-09-03T01:08:52;4.32;;;2.30;;
7359;SDS011;3720;48.274;7.796;2022-09-03T01:11:35;5.70;;;2.30;;
7359;SDS011;3720;48.274;7.796;2022-09-03T01:14:18;3.63;;;2.40;;
7359;SDS011;3720;48.274;7.796;2022-09-03T01:16:59;3.00;;;2.28;;
7359;SDS011;3720;48.274;7.796;2022-09-03T01:25:30;2.88;;;2.30;;
7359;SDS011;3720;48.274;7.796;2022-09-03T01:28:25;3.17;;;2.38;;
7359;SDS011;3720;48.274;7.796;2022-09-03T01:31:06;3.08;;;2.45;;
7359;SDS011;3720;48.274;7.796;2022-09-03T01:33:48;3.05;;;2.58;;
7359;SDS011;3720;48.274;7.796;2022-09-03T01:36:28;4.10;;;2.50;;
7359;SDS011;3720;48.274;7.796;2022-09-03T01:39:09;2.38;;;2.10;;
7359;SDS011;3720;48.274;7.796;2022-09-03T01:41:50;2.80;;;2.30;;
7359;SDS011;3720;48.274;7.796;2022-09-03T01:44:51;4.07;;;2.20;;
7359;SDS011;3720;48.274;7.796;2022-09-03T01:47:59;5.43;;;2.20;;
7359;SDS011;3720;48.274;7.796;2022-09-03T01:50:45;3.63;;;2.50;;
7359;SDS011;3720;48.274;7.796;2022-09-03T01:53:33;4.15;;;2.10;;
7359;SDS011;3720;48.274;7.796;2022-09-03T01:56:23;4.55;;;2.50;;
7359;SDS011;3720;48.274;7.796;2022-09-03T01:59:04;2.50;;;2.30;;
7359;SDS011;3720;48.274;7.796;2022-09-03T02:01:53;4.43;;;2.35;;
7359;SDS011;3720;48.274;7.796;2022-09-03T02:04:38;3.28;;;2.28;;
7359;SDS011;3720;48.274;7.796;2022-09-03T02:07:09;3.97;;;2.03;;
7359;SDS011;3720;48.274;7.796;2022-09-03T02:09:42;4.20;;;2.22;;
7359;SDS011;3720;48.274;7.796;2022-09-03T02:12:14;4.47;;;2.42;;
7359;SDS011;3720;48.274;7.796;2022-09-03T02:14:49;2.70;;;2.10;;
7359;SDS011;3720;48.274;7.796;2022-09-03T02:17:23;2.50;;;2.13;;
7359;SDS011;3720;48.274;7.796;2022-09-03T02:19:56;3.22;;;2.58;;
7359;SDS011;3720;48.274;7.796;2022-09-03T02:22:29;4.28;;;2.30;;
7359;SDS011;3720;48.274;7.796;2022-09-03T02:25:01;3.80;;;2.35;;
7359;SDS011;3720;48.274;7.796;2022-09-03T02:27:33;3.97;;;2.60;;
7359;SDS011;3720;48.274;7.796;2022-09-03T02:30:07;4.88;;;2.22;;
7359;SDS011;3720;48.274;7.796;2022-09-03T02:32:41;4.03;;;2.45;;
7359;SDS011;3720;48.274;7.796;2022-09-03T02:35:13;5.22;;;2.88;;
7359;SDS011;3720;48.274;7.796;2022-09-03T02:37:46;4.43;;;2.90;;
7359;SDS011;3720;48.274;7.796;2022-09-03T02:40:17;3.55;;;2.90;;
7359;SDS011;3720;48.274;7.796;2022-09-03T02:42:50;4.13;;;2.65;;
7359;SDS011;3720;48.274;7.796;2022-09-03T02:45:23;3.78;;;2.90;;
7359;SDS011;3720;48.274;7.796;2022-09-03T02:48:00;4.05;;;2.95;;
7359;SDS011;3720;48.274;7.796;2022-09-03T02:50:38;3.15;;;2.85;;
7359;SDS011;3720;48.274;7.796;2022-09-03T02:53:11;3.80;;;2.80;;
7359;SDS011;3720;48.274;7.796;2022-09-03T02:55:43;4.03;;;2.70;;
7359;SDS011;3720;48.274;7.796;2022-09-03T02:58:16;4.32;;;2.78;;
7359;SDS011;3720;48.274;7.796;2022-09-03T03:00:48;3.35;;;2.63;;
7359;SDS011;3720;48.274;7.796;2022-09-03T03:03:21;3.80;;;2.80;;
7359;SDS011;3720;48.274;7.796;2022-09-03T03:05:54;3.92;;;2.80;;
7359;SDS011;3720;48.274;7.796;2022-09-03T03:08:28;3.15;;;2.70;;
7359;SDS011;3720;48.274;7.796;2022-09-03T03:11:03;3.03;;;2.63;;
7359;SDS011;3720;48.274;7.796;2022-09-03T03:13:34;3.00;;;2.45;;
7359;SDS011;3720;48.274;7.796;2022-09-03T03:16:07;3.30;;;2.88;;
7359;SDS011;3720;48.274;7.796;2022-09-03T03:18:41;4.20;;;2.92;;
7359;SDS011;3720;48.274;7.796;2022-09-03T03:21:16;3.28;;;2.60;;
7359;SDS011;3720;48.274;7.796;2022-09-03T03:23:48;3.90;;;2.78;;
7359;SDS011;3720;48.274;7.796;2022-09-03T03:26:21;3.35;;;2.60;;
7359;SDS011;3720;48.274;7.796;2022-09-03T03:28:54;3.67;;;2.55;;
7359;SDS011;3720;48.274;7.796;2022-09-03T03:31:28;5.35;;;2.70;;
7359;SDS011;3720;48.274;7.796;2022-09-03T03:34:02;4.00;;;2.63;;
7359;SDS011;3720;48.274;7.796;2022-09-03T03:36:34;2.90;;;2.47;;
7359;SDS011;3720;48.274;7.796;2022-09-03T03:39:07;3.05;;;2.60;;
7359;SDS011;3720;48.274;7.796;2022-09-03T03:41:39;4.07;;;2.80;;
7359;SDS011;3720;48.274;7.796;2022-09-03T03:44:11;3.28;;;2.60;;
7359;SDS011;3720;48.274;7.796;2022-09-03T03:46:44;3.60;;;2.75;;
7359;SDS011;3720;48.274;7.796;2022-09-03T03:49:18;2.80;;;2.50;;
7359;SDS011;3720;48.274;7.796;2022-09-03T03:51:50;3.35;;;2.47;;
7359;SDS011;3720;48.274;7.796;2022-09-03T03:54:21;3.97;;;2.40;;
7359;SDS011;3720;48.274;7.796;2022-09-03T03:56:53;3.78;;;2.60;;
7359;SDS011;3720;48.274;7.796;2022-09-03T03:59:25;3.47;;;2.40;;
7359;SDS011;3720;48.274;7.796;2022-09-03T04:01:57;4.05;;;2.60;;
7359;SDS011;3720;48.274;7.796;2022-09-03T04:04:30;3.30;;;2.55;;
7359;SDS011;3720;48.274;7.796;2022-09-03T04:07:03;5.53;;;2.60;;
7359;SDS011;3720;48.274;7.796;2022-09-03T04:09:34;7.15;;;2.65;;
7359;SDS011;3720;48.274;7.796;2022-09-03T04:12:06;3.80;;;2.92;;
7359;SDS011;3720;48.274;7.796;2022-09-03T04:14:39;5.13;;;2.80;;
7359;SDS011;3720;48.274;7.796;2022-09-03T04:17:12;4.30;;;3.25;;
7359;SDS011;3720;48.274;7.796;2022-09-03T04:19:45;4.93;;;3.20;;
7359;SDS011;3720;48.274;7.796;2022-09-03T04:22:17;6.25;;;3.45;;
7359;SDS011;3720;48.274;7.796;2022-09-03T04:24:49;4.40;;;3.15;;
7359;SDS011;3720;48.274;7.796;2022-09-03T04:27:21;4.80;;;3.10;;
7359;SDS011;3720;48.274;7.796;2022-09-03T04:29:53;9.75;;;4.00;;
7359;SDS011;3720;48.274;7.796;2022-09-03T04:32:26;6.53;;;3.80;;
7359;SDS011;3720;48.274;7.796;2022-09-03T04:35:16;5.40;;;3.42;;
7359;SDS011;3720;48.274;7.796;2022-09-03T04:37:50;4.95;;;3.67;;
7359;SDS011;3720;48.274;7.796;2022-09-03T04:40:24;6.38;;;4.00;;
7359;SDS011;3720;48.274;7.796;2022-09-03T04:42:56;5.32;;;3.67;;
7359;SDS011;3720;48.274;7.796;2022-09-03T04:45:29;6.10;;;3.67;;
7359;SDS011;3720;48.274;7.796;2022-09-03T04:48:02;4.07;;;3.67;;
7359;SDS011;3720;48.274;7.796;2022-09-03T04:50:36;4.93;;;3.50;;
7359;SDS011;3720;48.274;7.796;2022-09-03T04:53:08;6.22;;;3.35;;
7359;SDS011;3720;48.274;7.796;2022-09-03T04:55:40;5.70;;;3.40;;
7359;SDS011;3720;48.274;7.796;2022-09-03T04:58:11;5.93;;;3.30;;
7359;SDS011;3720;48.274;7.796;2022-09-03T05:00:43;4.65;;;3.67;;
7359;SDS011;3720;48.274;7.796;2022-09-03T05:03:15;5.70;;;3.25;;
7359;SDS011;3720;48.274;7.796;2022-09-03T05:05:52;3.80;;;3.25;;
7359;SDS011;3720;48.274;7.796;2022-09-03T05:08:25;5.60;;;3.47;;
7359;SDS011;3720;48.274;7.796;2022-09-03T05:10:57;4.60;;;3.38;;
7359;SDS011;3720;48.274;7.796;2022-09-03T05:13:30;4.28;;;3.53;;
7359;SDS011;3720;48.274;7.796;2022-09-03T05:16:05;5.18;;;3.67;;
7359;SDS011;3720;48.274;7.796;2022-09-03T05:18:38;7.05;;;3.70;;
7359;SDS011;3720;48.274;7.796;2022-09-03T05:21:13;5.07;;;3.53;;
7359;SDS011;3720;48.274;7.796;2022-09-03T05:23:47;9.13;;;3.90;;
7359;SDS011;3720;48.274;7.796;2022-09-03T05:26:21;5.85;;;3.70;;
7359;SDS011;3720;48.274;7.796;2022-09-03T05:28:55;6.30;;;4.00;;
7359;SDS011;3720;48.274;7.796;2022-09-03T05:31:28;4.60;;;3.63;;
7359;SDS011;3720;48.274;7.796;2022-09-03T05:34:02;4.70;;;3.70;;
7359;SDS011;3720;48.274;7.796;2022-09-03T05:36:36;6.95;;;4.10;;
7359;SDS011;3720;48.274;7.796;2022-09-03T05:39:09;5.13;;;3.72;;
7359;SDS011;3720;48.274;7.796;2022-09-03T05:41:41;7.50;;;3.92;;
7359;SDS011;3720;48.274;7.796;2022-09-03T05:44:12;8.00;;;3.70;;
7359;SDS011;3720;48.274;7.796;2022-09-03T05:46:45;5.88;;;4.10;;
7359;SDS011;3720;48.274;7.796;2022-09-03T05:49:16;6.53;;;3.92;;
7359;SDS011;3720;48.274;7.796;2022-09-03T05:51:50;6.38;;;4.30;;
7359;SDS011;3720;48.274;7.796;2022-09-03T05:54:22;6.85;;;4.25;;
7359;SDS011;3720;48.274;7.796;2022-09-03T05:56:54;6.55;;;4.15;;
7359;SDS011;3720;48.274;7.796;2022-09-03T05:59:26;6.60;;;3.92;;
7359;SDS011;3720;48.274;7.796;2022-09-03T06:01:58;7.72;;;4.22;;
7359;SDS011;3720;48.274;7.796;2022-09-03T06:04:30;7.90;;;3.50;;
7359;SDS011;3720;48.274;7.796;2022-09-03T06:07:04;9.52;;;3.88;;
7359;SDS011;3720;48.274;7.796;2022-09-03T06:09:37;7.07;;;3.80;;
7359;SDS011;3720;48.274;7.796;2022-09-03T06:12:09;5.30;;;3.78;;
7359;SDS011;3720;48.274;7.796;2022-09-03T06:14:41;6.88;;;4.65;;
7359;SDS011;3720;48.274;7.796;2022-09-03T06:17:12;5.07;;;4.20;;
7359;SDS011;3720;48.274;7.796;2022-09-03T06:19:45;6.13;;;4.40;;
7359;SDS011;3720;48.274;7.796;2022-09-03T06:22:18;6.65;;;4.30;;
7359;SDS011;3720;48.274;7.796;2022-09-03T06:24:53;8.18;;;4.50;;
7359;SDS011;3720;48.274;7.796;2022-09-03T06:27:27;6.57;;;5.20;;
7359;SDS011;3720;48.274;7.796;2022-09-03T06:29:59;6.22;;;4.22;;
7359;SDS011;3720;48.274;7.796;2022-09-03T06:32:32;6.18;;;4.60;;
7359;SDS011;3720;48.274;7.796;2022-09-03T06:35:04;7.35;;;4.13;;
7359;SDS011;3720;48.274;7.796;2022-09-03T06:37:39;6.03;;;4.00;;
7359;SDS011;3720;48.274;7.796;2022-09-03T06:40:11;5.30;;;3.92;;
7359;SDS011;3720;48.274;7.796;2022-09-03T06:42:54;5.32;;;3.83;;
7359;SDS011;3720;48.274;7.796;2022-09-03T06:45:28;5.63;;;3.85;;
7359;SDS011;3720;48.274;7.796;2022-09-03T06:48:01;6.88;;;4.20;;
7359;SDS011;3720;48.274;7.796;2022-09-03T06:50:33;6.13;;;3.38;;
7359;SDS011;3720;48.274;7.796;2022-09-03T06:53:07;4.85;;;3.47;;
7359;SDS011;3720;48.274;7.796;2022-09-03T06:55:39;4.28;;;3.30;;
7359;SDS011;3720;48.274;7.796;2022-09-03T06:58:12;6.53;;;3.55;;
7359;SDS011;3720;48.274;7.796;2022-09-03T07:00:44;6.38;;;3.13;;
7359;SDS011;3720;48.274;7.796;2022-09-03T07:03:15;4.55;;;3.50;;
7359;SDS011;3720;48.274;7.796;2022-09-03T07:05:48;4.93;;;3.65;;
7359;SDS011;3720;48.274;7.796;2022-09-03T07:08:21;7.28;;;3.90;;
7359;SDS011;3720;48.274;7.796;2022-09-03T07:10:53;6.45;;;4.70;;
7359;SDS011;3720;48.274;7.796;2022-09-03T07:13:25;6.57;;;4.47;;
7359;SDS011;3720;48.274;7.796;2022-09-03T07:15:59;9.60;;;4.07;;
7359;SDS011;3720;48.274;7.796;2022-09-03T07:18:31;6.68;;;4.07;;
7359;SDS011;3720;48.274;7.796;2022-09-03T07:21:05;7.43;;;3.92;;
7359;SDS011;3720;48.274;7.796;2022-09-03T07:23:40;6.25;;;3.40;;
7359;SDS011;3720;48.274;7.796;2022-09-03T07:26:13;6.40;;;4.35;;
7359;SDS011;3720;48.274;7.796;2022-09-03T07:28:48;6.63;;;3.10;;
7359;SDS011;3720;48.274;7.796;2022-09-03T07:31:23;7.90;;;3.50;;
7359;SDS011;3720;48.274;7.796;2022-09-03T07:33:56;6.68;;;3.63;;
7359;SDS011;3720;48.274;7.796;2022-09-03T07:36:29;3.75;;;3.15;;
7359;SDS011;3720;48.274;7.796;2022-09-03T07:39:04;4.38;;;2.70;;
7359;SDS011;3720;48.274;7.796;2022-09-03T07:41:35;5.20;;;3.25;;
7359;SDS011;3720;48.274;7.796;2022-09-03T07:44:08;3.85;;;2.95;;
7359;SDS011;3720;48.274;7.796;2022-09-03T07:46:40;5.40;;;3.00;;
7359;SDS011;3720;48.274;7.796;2022-09-03T07:49:15;3.42;;;2.80;;
7359;SDS011;3720;48.274;7.796;2022-09-03T07:51:47;4.80;;;3.10;;
7359;SDS011;3720;48.274;7.796;2022-09-03T07:54:23;3.13;;;2.80;;
7359;SDS011;3720;48.274;7.796;2022-09-03T07:56:56;14.15;;;3.45;;
7359;SDS011;3720;48.274;7.796;2022-09-03T07:59:28;5.00;;;2.83;;
7359;SDS011;3720;48.274;7.796;2022-09-03T08:02:00;7.78;;;2.70;;
7359;SDS011;3720;48.274;7.796;2022-09-03T08:04:35;4.45;;;3.22;;
7359;SDS011;3720;48.274;7.796;2022-09-03T08:07:07;7.50;;;2.97;;
7359;SDS011;3720;48.274;7.796;2022-09-03T08:09:40;49.63;;;3.95;;
7359;SDS011;3720;48.274;7.796;2022-09-03T08:12:12;13.85;;;3.03;;
7359;SDS011;3720;48.274;7.796;2022-09-03T08:14:44;13.85;;;3.25;;
7359;SDS011;3720;48.274;7.796;2022-09-03T08:17:17;24.48;;;3.45;;
7359;SDS011;3720;48.274;7.796;2022-09-03T08:19:49;22.00;;;3.20;;
7359;SDS011;3720;48.274;7.796;2022-09-03T08:22:21;7.72;;;3.13;;
7359;SDS011;3720;48.274;7.796;2022-09-03T08:24:55;12.48;;;3.05;;
7359;SDS011;3720;48.274;7.796;2022-09-03T08:27:27;4.53;;;2.35;;
7359;SDS011;3720;48.274;7.796;2022-09-03T08:29:59;21.63;;;3.00;;
7359;SDS011;3720;48.274;7.796;2022-09-03T08:32:33;5.63;;;3.00;;
7359;SDS011;3720;48.274;7.796;2022-09-03T08:35:05;4.20;;;2.90;;
7359;SDS011;3720;48.274;7.796;2022-09-03T08:37:39;4.38;;;2.67;;
7359;SDS011;3720;48.274;7.796;2022-09-03T08:40:13;5.78;;;3.10;;
7359;SDS011;3720;48.274;7.796;2022-09-03T08:42:48;7.00;;;2.90;;
7359;SDS011;3720;48.274;7.796;2022-09-03T08:45:33;7.13;;;3.20;;
7359;SDS011;3720;48.274;7.796;2022-09-03T08:48:08;6.07;;;3.10;;
7359;SDS011;3720;48.274;7.796;2022-09-03T08:50:44;4.40;;;2.67;;
7359;SDS011;3720;48.274;7.796;2022-09-03T08:53:26;8.98;;;3.25;;
7359;SDS011;3720;48.274;7.796;2022-09-03T08:56:09;4.32;;;3.00;;
7359;SDS011;3720;48.274;7.796;2022-09-03T08:58:43;7.00;;;2.78;;
7359;SDS011;3720;48.274;7.796;2022-09-03T09:01:18;5.47;;;3.20;;
7359;SDS011;3720;48.274;7.796;2022-09-03T09:04:04;4.63;;;2.78;;
7359;SDS011;3720;48.274;7.796;2022-09-03T09:06:49;6.78;;;3.00;;
7359;SDS011;3720;48.274;7.796;2022-09-03T09:09:28;5.43;;;2.95;;
7359;SDS011;3720;48.274;7.796;2022-09-03T09:12:12;5.18;;;3.03;;
7359;SDS011;3720;48.274;7.796;2022-09-03T09:14:56;6.18;;;2.90;;
7359;SDS011;3720;48.274;7.796;2022-09-03T09:17:55;6.20;;;2.70;;
7359;SDS011;3720;48.274;7.796;2022-09-03T09:20:35;6.35;;;3.10;;
7359;SDS011;3720;48.274;7.796;2022-09-03T09:23:14;4.35;;;3.20;;
7359;SDS011;3720;48.274;7.796;2022-09-03T09:25:50;3.75;;;2.95;;
7359;SDS011;3720;48.274;7.796;2022-09-03T09:28:29;5.85;;;2.90;;
7359;SDS011;3720;48.274;7.796;2022-09-03T09:31:06;4.20;;;3.30;;
7359;SDS011;3720;48.274;7.796;2022-09-03T09:33:41;7.57;;;2.83;;
7359;SDS011;3720;48.274;7.796;2022-09-03T09:36:14;4.65;;;3.10;;
7359;SDS011;3720;48.274;7.796;2022-09-03T09:38:48;3.42;;;3.00;;
7359;SDS011;3720;48.274;7.796;2022-09-03T09:41:23;4.25;;;3.30;;
7359;SDS011;3720;48.274;7.796;2022-09-03T09:44:00;5.40;;;3.20;;
7359;SDS011;3720;48.274;7.796;2022-09-03T09:46:35;4.78;;;2.88;;
7359;SDS011;3720;48.274;7.796;2022-09-03T09:49:17;4.13;;;3.03;;
7359;SDS011;3720;48.274;7.796;2022-09-03T09:51:59;3.28;;;2.90;;
7359;SDS011;3720;48.274;7.796;2022-09-03T09:54:43;5.78;;;3.80;;
7359;SDS011;3720;48.274;7.796;2022-09-03T09:57:16;4.82;;;3.38;;
7359;SDS011;3720;48.274;7.796;2022-09-03T10:00:03;5.40;;;3.58;;
7359;SDS011;3720;48.274;7.796;2022-09-03T10:02:39;6.50;;;3.47;;
7359;SDS011;3720;48.274;7.796;2022-09-03T10:05:19;5.28;;;3.33;;
7359;SDS011;3720;48.274;7.796;2022-09-03T10:07:54;3.28;;;2.97;;
7359;SDS011;3720;48.274;7.796;2022-09-03T10:10:28;5.93;;;3.20;;
7359;SDS011;3720;48.274;7.796;2022-09-03T10:13:08;6.00;;;3.10;;
7359;SDS011;3720;48.274;7.796;2022-09-03T10:15:44;3.97;;;3.05;;
7359;SDS011;3720;48.274;7.796;2022-09-03T10:18:21;6.78;;;3.78;;
7359;SDS011;3720;48.274;7.796;2022-09-03T10:21:05;3.33;;;3.03;;
7359;SDS011;3720;48.274;7.796;2022-09-03T10:23:47;5.95;;;3.67;;
7359;SDS011;3720;48.274;7.796;2022-09-03T10:26:25;11.32;;;3.65;;
7359;SDS011;3720;48.274;7.796;2022-09-03T10:29:00;11.30;;;2.55;;
7359;SDS011;3720;48.274;7.796;2022-09-03T10:31:38;12.30;;;3.20;;
7359;SDS011;3720;48.274;7.796;2022-09-03T10:34:20;16.75;;;2.55;;
7359;SDS011;3720;48.274;7.796;2022-09-03T10:36:57;14.00;;;2.67;;
7359;SDS011;3720;48.274;7.796;2022-09-03T10:39:39;7.22;;;1.58;;
7359;SDS011;3720;48.274;7.796;2022-09-03T10:42:25;3.00;;;1.40;;
7359;SDS011;3720;48.274;7.796;2022-09-03T10:45:07;9.95;;;1.25;;
7359;SDS011;3720;48.274;7.796;2022-09-03T10:47:56;4.60;;;0.90;;
7359;SDS011;3720;48.274;7.796;2022-09-03T10:50:46;3.35;;;0.88;;
7359;SDS011;3720;48.274;7.796;2022-09-03T10:53:27;0.73;;;0.70;;
7359;SDS011;3720;48.274;7.796;2022-09-03T10:56:10;2.17;;;0.50;;
7359;SDS011;3720;48.274;7.796;2022-09-03T10:58:59;1.35;;;0.60;;
7359;SDS011;3720;48.274;7.796;2022-09-03T11:01:41;4.10;;;0.80;;
7359;SDS011;3720;48.274;7.796;2022-09-03T11:04:24;2.33;;;0.70;;
7359;SDS011;3720;48.274;7.796;2022-09-03T11:07:03;2.25;;;0.60;;
7359;SDS011;3720;48.274;7.796;2022-09-03T11:09:39;1.40;;;0.60;;
7359;SDS011;3720;48.274;7.796;2022-09-03T11:12:15;3.20;;;0.85;;
7359;SDS011;3720;48.274;7.796;2022-09-03T11:14:52;2.97;;;0.80;;
7359;SDS011;3720;48.274;7.796;2022-09-03T11:17:31;2.65;;;0.50;;
7359;SDS011;3720;48.274;7.796;2022-09-03T11:20:14;2.15;;;0.55;;
7359;SDS011;3720;48.274;7.796;2022-09-03T11:22:51;1.90;;;0.60;;
7359;SDS011;3720;48.274;7.796;2022-09-03T11:25:29;0.82;;;0.60;;
7359;SDS011;3720;48.274;7.796;2022-09-03T11:28:07;1.83;;;0.80;;
7359;SDS011;3720;48.274;7.796;2022-09-03T11:30:51;0.63;;;0.57;;
7359;SDS011;3720;48.274;7.796;2022-09-03T11:33:37;1.00;;;0.55;;
7359;SDS011;3720;48.274;7.796;2022-09-03T11:36:26;0.60;;;0.60;;
7359;SDS011;3720;48.274;7.796;2022-09-03T11:39:11;0.70;;;0.60;;
7359;SDS011;3720;48.274;7.796;2022-09-03T11:41:55;0.65;;;0.50;;
7359;SDS011;3720;48.274;7.796;2022-09-03T11:44:34;0.40;;;0.40;;
7359;SDS011;3720;48.274;7.796;2022-09-03T11:47:14;0.68;;;0.40;;
7359;SDS011;3720;48.274;7.796;2022-09-03T11:49:48;1.30;;;0.55;;
7359;SDS011;3720;48.274;7.796;2022-09-03T11:52:26;0.60;;;0.50;;
7359;SDS011;3720;48.274;7.796;2022-09-03T11:55:00;0.90;;;0.50;;
7359;SDS011;3720;48.274;7.796;2022-09-03T11:57:33;1.42;;;0.40;;
7359;SDS011;3720;48.274;7.796;2022-09-03T12:00:13;1.02;;;0.30;;
7359;SDS011;3720;48.274;7.796;2022-09-03T12:02:51;0.63;;;0.55;;
7359;SDS011;3720;48.274;7.796;2022-09-03T12:05:29;0.82;;;0.60;;
7359;SDS011;3720;48.274;7.796;2022-09-03T12:08:17;1.15;;;0.50;;
7359;SDS011;3720;48.274;7.796;2022-09-03T12:11:15;0.70;;;0.50;;
7359;SDS011;3720;48.274;7.796;2022-09-03T12:14:00;1.02;;;0.50;;
7359;SDS011;3720;48.274;7.796;2022-09-03T12:19:39;4.53;;;0.70;;
7359;SDS011;3720;48.274;7.796;2022-09-03T12:22:15;1.95;;;0.60;;
7359;SDS011;3720;48.274;7.796;2022-09-03T12:24:50;1.15;;;0.60;;
7359;SDS011;3720;48.274;7.796;2022-09-03T12:27:23;2.70;;;0.88;;
7359;SDS011;3720;48.274;7.796;2022-09-03T12:29:57;1.80;;;0.80;;
7359;SDS011;3720;48.274;7.796;2022-09-03T12:32:31;1.17;;;0.70;;
7359;SDS011;3720;48.274;7.796;2022-09-03T12:35:10;0.95;;;0.80;;
7359;SDS011;3720;48.274;7.796;2022-09-03T12:37:43;1.02;;;0.70;;
7359;SDS011;3720;48.274;7.796;2022-09-03T12:40:19;1.98;;;0.50;;
7359;SDS011;3720;48.274;7.796;2022-09-03T12:42:52;0.93;;;0.65;;
7359;SDS011;3720;48.274;7.796;2022-09-03T12:45:25;1.92;;;0.50;;
7359;SDS011;3720;48.274;7.796;2022-09-03T12:47:58;0.85;;;0.65;;
7359;SDS011;3720;48.274;7.796;2022-09-03T12:50:29;0.85;;;0.50;;
7359;SDS011;3720;48.274;7.796;2022-09-03T12:53:03;1.17;;;0.43;;
7359;SDS011;3720;48.274;7.796;2022-09-03T12:55:37;0.70;;;0.50;;
7359;SDS011;3720;48.274;7.796;2022-09-03T12:58:15;2.15;;;0.50;;
7359;SDS011;3720;48.274;7.796;2022-09-03T13:00:51;1.73;;;0.60;;
7359;SDS011;3720;48.274;7.796;2022-09-03T13:03:28;1.02;;;0.70;;
7359;SDS011;3720;48.274;7.796;2022-09-03T13:06:05;1.67;;;0.60;;
7359;SDS011;3720;48.274;7.796;2022-09-03T13:08:43;0.80;;;0.50;;
7359;SDS011;3720;48.274;7.796;2022-09-03T13:11:20;0.95;;;0.60;;
7359;SDS011;3720;48.274;7.796;2022-09-03T13:13:54;0.80;;;0.60;;
7359;SDS011;3720;48.274;7.796;2022-09-03T13:16:50;1.65;;;0.60;;
7359;SDS011;3720;48.274;7.796;2022-09-03T13:19:43;1.00;;;0.57;;
7359;SDS011;3720;48.274;7.796;2022-09-03T13:22:30;0.75;;;0.50;;
7359;SDS011;3720;48.274;7.796;2022-09-03T13:25:15;0.73;;;0.43;;
7359;SDS011;3720;48.274;7.796;2022-09-03T13:27:58;1.55;;;0.50;;
7359;SDS011;3720;48.274;7.796;2022-09-03T13:30:39;0.50;;;0.50;;
7359;SDS011;3720;48.274;7.796;2022-09-03T13:33:19;0.40;;;0.40;;
7359;SDS011;3720;48.274;7.796;2022-09-03T13:35:58;0.40;;;0.40;;
7359;SDS011;3720;48.274;7.796;2022-09-03T13:38:34;0.68;;;0.60;;
7359;SDS011;3720;48.274;7.796;2022-09-03T13:41:13;0.95;;;0.60;;
7359;SDS011;3720;48.274;7.796;2022-09-03T13:43:53;0.55;;;0.40;;
7359;SDS011;3720;48.274;7.796;2022-09-03T13:46:39;0.70;;;0.40;;
7359;SDS011;3720;48.274;7.796;2022-09-03T13:49:18;0.50;;;0.47;;
7359;SDS011;3720;48.274;7.796;2022-09-03T13:52:16;0.50;;;0.50;;
7359;SDS011;3720;48.274;7.796;2022-09-03T13:54:55;1.15;;;0.50;;
7359;SDS011;3720;48.274;7.796;2022-09-03T13:57:33;0.70;;;0.60;;
7359;SDS011;3720;48.274;7.796;2022-09-03T14:02:45;0.40;;;0.40;;
7359;SDS011;3720;48.274;7.796;2022-09-03T14:05:31;0.60;;;0.60;;
7359;SDS011;3720;48.274;7.796;2022-09-03T14:08:19;0.55;;;0.50;;
7359;SDS011;3720;48.274;7.796;2022-09-03T14:11:01;0.77;;;0.60;;
7359;SDS011;3720;48.274;7.796;2022-09-03T14:13:46;2.28;;;0.57;;
7359;SDS011;3720;48.274;7.796;2022-09-03T14:16:30;0.65;;;0.60;;
7359;SDS011;3720;48.274;7.796;2022-09-03T14:19:14;0.90;;;0.80;;
7359;SDS011;3720;48.274;7.796;2022-09-03T14:21:51;1.30;;;0.85;;
7359;SDS011;3720;48.274;7.796;2022-09-03T14:27:01;1.17;;;0.65;;
7359;SDS011;3720;48.274;7.796;2022-09-03T14:29:35;1.20;;;0.70;;
7359;SDS011;3720;48.274;7.796;2022-09-03T14:32:17;1.02;;;0.80;;
7359;SDS011;3720;48.274;7.796;2022-09-03T14:41:04;0.70;;;0.70;;
7359;SDS011;3720;48.274;7.796;2022-09-03T14:47:10;2.25;;;1.00;;
7359;SDS011;3720;48.274;7.796;2022-09-03T14:50:07;1.30;;;0.90;;
7359;SDS011;3720;48.274;7.796;2022-09-03T14:52:59;1.10;;;1.00;;
7359;SDS011;3720;48.274;7.796;2022-09-03T14:55:50;2.13;;;1.10;;
7359;SDS011;3720;48.274;7.796;2022-09-03T14:58:51;2.47;;;1.25;;
7359;SDS011;3720;48.274;7.796;2022-09-03T15:01:34;1.95;;;1.38;;
7359;SDS011;3720;48.274;7.796;2022-09-03T15:07:25;2.35;;;1.45;;
7359;SDS011;3720;48.274;7.796;2022-09-03T15:10:06;2.17;;;1.27;;
7359;SDS011;3720;48.274;7.796;2022-09-03T15:12:47;2.78;;;1.52;;
7359;SDS011;3720;48.274;7.796;2022-09-03T15:15:23;4.05;;;1.30;;
7359;SDS011;3720;48.274;7.796;2022-09-03T15:18:02;1.63;;;1.00;;
7359;SDS011;3720;48.274;7.796;2022-09-03T15:20:47;2.28;;;1.38;;
7359;SDS011;3720;48.274;7.796;2022-09-03T15:23:43;1.77;;;1.33;;
7359;SDS011;3720;48.274;7.796;2022-09-03T15:32:24;2.67;;;2.10;;
7359;SDS011;3720;48.274;7.796;2022-09-03T15:35:08;2.78;;;1.85;;
7359;SDS011;3720;48.274;7.796;2022-09-03T15:37:44;1.98;;;1.40;;
7359;SDS011;3720;48.274;7.796;2022-09-03T15:40:24;2.05;;;1.48;;
7359;SDS011;3720;48.274;7.796;2022-09-03T15:43:03;1.27;;;1.17;;
7359;SDS011;3720;48.274;7.796;2022-09-03T15:45:39;1.58;;;1.23;;
7359;SDS011;3720;48.274;7.796;2022-09-03T15:48:28;1.50;;;1.20;;
7359;SDS011;3720;48.274;7.796;2022-09-03T15:51:06;1.73;;;1.50;;
7359;SDS011;3720;48.274;7.796;2022-09-03T15:53:45;1.90;;;1.30;;
7359;SDS011;3720;48.274;7.796;2022-09-03T15:56:25;1.38;;;1.20;;
7359;SDS011;3720;48.274;7.796;2022-09-03T15:59:05;2.40;;;1.40;;
7359;SDS011;3720;48.274;7.796;2022-09-03T16:01:44;1.50;;;1.20;;
7359;SDS011;3720;48.274;7.796;2022-09-03T16:04:24;1.23;;;1.13;;
7359;SDS011;3720;48.274;7.796;2022-09-03T16:07:08;3.78;;;1.20;;
7359;SDS011;3720;48.274;7.796;2022-09-03T16:09:52;2.08;;;1.20;;
7359;SDS011;3720;48.274;7.796;2022-09-03T16:12:33;4.65;;;2.35;;
7359;SDS011;3720;48.274;7.796;2022-09-03T16:15:11;2.30;;;1.23;;
7359;SDS011;3720;48.274;7.796;2022-09-03T16:17:49;2.22;;;1.10;;
7359;SDS011;3720;48.274;7.796;2022-09-03T16:20:31;2.92;;;1.30;;
7359;SDS011;3720;48.274;7.796;2022-09-03T16:23:09;2.40;;;1.38;;
7359;SDS011;3720;48.274;7.796;2022-09-03T16:25:47;1.33;;;1.05;;
7359;SDS011;3720;48.274;7.796;2022-09-03T16:28:25;2.63;;;0.98;;
7359;SDS011;3720;48.274;7.796;2022-09-03T16:31:03;2.03;;;1.10;;
7359;SDS011;3720;48.274;7.796;2022-09-03T16:33:44;3.53;;;0.93;;
7359;SDS011;3720;48.274;7.796;2022-09-03T16:36:30;1.42;;;1.10;;
7359;SDS011;3720;48.274;7.796;2022-09-03T16:39:11;1.27;;;1.15;;
7359;SDS011;3720;48.274;7.796;2022-09-03T16:41:49;2.15;;;1.00;;
7359;SDS011;3720;48.274;7.796;2022-09-03T16:44:34;2.33;;;0.90;;
7359;SDS011;3720;48.274;7.796;2022-09-03T16:47:20;1.40;;;1.13;;
7359;SDS011;3720;48.274;7.796;2022-09-03T16:50:04;2.38;;;1.20;;
7359;SDS011;3720;48.274;7.796;2022-09-03T16:52:57;2.38;;;1.60;;